sensor_id;sensor_type;location;lat;lon;timestamp;pressure;altitude;pressure_sealevel;temperature
72054;BMP280;59918;51.280;7.950;2022-12-24T00:01:24;97065.50;;;9.53
72054;BMP280;59918;51.280;7.950;2022-12-24T00:03:49;97064.34;;;9.49
72054;BMP280;59918;51.280;7.950;2022-12-24T00:06:18;97071.47;;;9.47
72054;BMP280;59918;51.280;7.950;2022-12-24T00:08:43;97074.25;;;9.46
72054;BMP280;59918;51.280;7.950;2022-12-24T00:11:08;97069.91;;;9.46
72054;BMP280;59918;51.280;7.950;2022-12-24T00:13:34;97068.09;;;9.47
72054;BMP280;59918;51.280;7.950;2022-12-24T00:15:59;97065.53;;;9.47
72054;BMP280;59918;51.280;7.950;2022-12-24T00:18:25;97073.25;;;9.47
72054;BMP280;59918;51.280;7.950;2022-12-24T00:20:51;97089.84;;;9.45
72054;BMP280;59918;51.280;7.950;2022-12-24T00:23:17;97092.84;;;9.42
72054;BMP280;59918;51.280;7.950;2022-12-24T00:25:43;97106.09;;;9.39
72054;BMP280;59918;51.280;7.950;2022-12-24T00:28:08;97090.72;;;9.39
72054;BMP280;59918;51.280;7.950;2022-12-24T00:30:34;97089.38;;;9.36
72054;BMP280;59918;51.280;7.950;2022-12-24T00:32:59;97095.69;;;9.34
72054;BMP280;59918;51.280;7.950;2022-12-24T00:35:24;97107.31;;;9.36
72054;BMP280;59918;51.280;7.950;2022-12-24T00:37:50;97098.81;;;9.36
72054;BMP280;59918;51.280;7.950;2022-12-24T00:40:16;97116.78;;;9.36
72054;BMP280;59918;51.280;7.950;2022-12-24T00:42:42;97114.66;;;9.33
72054;BMP280;59918;51.280;7.950;2022-12-24T00:45:09;97112.28;;;9.31
72054;BMP280;59918;51.280;7.950;2022-12-24T00:47:34;97133.00;;;9.30
72054;BMP280;59918;51.280;7.950;2022-12-24T00:49:59;97122.75;;;9.30
72054;BMP280;59918;51.280;7.950;2022-12-24T00:52:25;97121.19;;;9.29
72054;BMP280;59918;51.280;7.950;2022-12-24T00:54:50;97133.47;;;9.27
72054;BMP280;59918;51.280;7.950;2022-12-24T00:57:15;97135.25;;;9.26
72054;BMP280;59918;51.280;7.950;2022-12-24T00:59:41;97132.09;;;9.24
72054;BMP280;59918;51.280;7.950;2022-12-24T01:02:06;97143.34;;;9.23
72054;BMP280;59918;51.280;7.950;2022-12-24T01:04:31;97148.47;;;9.23
72054;BMP280;59918;51.280;7.950;2022-12-24T01:06:57;97151.81;;;9.24
72054;BMP280;59918;51.280;7.950;2022-12-24T01:09:22;97150.25;;;9.23
72054;BMP280;59918;51.280;7.950;2022-12-24T01:11:47;97147.69;;;9.23
72054;BMP280;59918;51.280;7.950;2022-12-24T01:14:12;97157.97;;;9.23
72054;BMP280;59918;51.280;7.950;2022-12-24T01:16:38;97157.75;;;9.24
72054;BMP280;59918;51.280;7.950;2022-12-24T01:19:03;97173.34;;;9.23
72054;BMP280;59918;51.280;7.950;2022-12-24T01:21:28;97161.50;;;9.22
72054;BMP280;59918;51.280;7.950;2022-12-24T01:23:53;97169.19;;;9.22
72054;BMP280;59918;51.280;7.950;2022-12-24T01:26:19;97178.69;;;9.21
72054;BMP280;59918;51.280;7.950;2022-12-24T01:28:44;97185.03;;;9.19
72054;BMP280;59918;51.280;7.950;2022-12-24T01:31:11;97192.72;;;9.19
72054;BMP280;59918;51.280;7.950;2022-12-24T01:33:36;97189.59;;;9.17
72054;BMP280;59918;51.280;7.950;2022-12-24T01:36:02;97196.75;;;9.09
72054;BMP280;59918;51.280;7.950;2022-12-24T01:38:28;97199.78;;;8.99
72054;BMP280;59918;51.280;7.950;2022-12-24T01:40:53;97200.34;;;9.01
72054;BMP280;59918;51.280;7.950;2022-12-24T01:43:20;97208.63;;;9.03
72054;BMP280;59918;51.280;7.950;2022-12-24T01:50:58;97214.72;;;9.09
72054;BMP280;59918;51.280;7.950;2022-12-24T01:53:24;97204.06;;;9.05
72054;BMP280;59918;51.280;7.950;2022-12-24T01:55:50;97203.06;;;9.06
72054;BMP280;59918;51.280;7.950;2022-12-24T01:58:16;97202.09;;;9.07
72054;BMP280;59918;51.280;7.950;2022-12-24T02:00:44;97206.47;;;9.00
72054;BMP280;59918;51.280;7.950;2022-12-24T02:03:09;97208.69;;;8.90
72054;BMP280;59918;51.280;7.950;2022-12-24T02:05:50;97205.22;;;8.85
72054;BMP280;59918;51.280;7.950;2022-12-24T02:08:18;97191.00;;;8.82
72054;BMP280;59918;51.280;7.950;2022-12-24T02:10:45;97202.66;;;8.85
72054;BMP280;59918;51.280;7.950;2022-12-24T02:13:12;97214.41;;;8.92
72054;BMP280;59918;51.280;7.950;2022-12-24T02:18:35;97216.13;;;8.98
72054;BMP280;59918;51.280;7.950;2022-12-24T02:23:48;97229.28;;;9.08
72054;BMP280;59918;51.280;7.950;2022-12-24T02:31:37;97246.84;;;9.11
72054;BMP280;59918;51.280;7.950;2022-12-24T02:34:29;97243.53;;;9.04
72054;BMP280;59918;51.280;7.950;2022-12-24T02:37:05;97244.19;;;8.93
72054;BMP280;59918;51.280;7.950;2022-12-24T02:39:57;97258.41;;;8.89
72054;BMP280;59918;51.280;7.950;2022-12-24T02:42:27;97254.84;;;8.90
72054;BMP280;59918;51.280;7.950;2022-12-24T02:45:07;97262.72;;;8.95
72054;BMP280;59918;51.280;7.950;2022-12-24T02:47:33;97255.41;;;8.99
72054;BMP280;59918;51.280;7.950;2022-12-24T02:50:03;97277.66;;;9.05
72054;BMP280;59918;51.280;7.950;2022-12-24T02:55:01;97279.81;;;9.08
72054;BMP280;59918;51.280;7.950;2022-12-24T03:00:22;97278.81;;;9.09
72054;BMP280;59918;51.280;7.950;2022-12-24T03:03:17;97286.13;;;9.05
72054;BMP280;59918;51.280;7.950;2022-12-24T03:05:48;97284.78;;;8.96
72054;BMP280;59918;51.280;7.950;2022-12-24T03:08:16;97297.84;;;8.88
72054;BMP280;59918;51.280;7.950;2022-12-24T03:10:55;97305.59;;;8.82
72054;BMP280;59918;51.280;7.950;2022-12-24T03:13:23;97296.94;;;8.76
72054;BMP280;59918;51.280;7.950;2022-12-24T03:15:50;97311.91;;;8.73
72054;BMP280;59918;51.280;7.950;2022-12-24T03:18:18;97319.25;;;8.70
72054;BMP280;59918;51.280;7.950;2022-12-24T03:20:48;97319.59;;;8.79
72054;BMP280;59918;51.280;7.950;2022-12-24T03:23:15;97320.16;;;8.88
72054;BMP280;59918;51.280;7.950;2022-12-24T03:25:42;97321.13;;;8.93
72054;BMP280;59918;51.280;7.950;2022-12-24T03:28:11;97315.56;;;8.96
72054;BMP280;59918;51.280;7.950;2022-12-24T03:30:42;97309.47;;;8.97
72054;BMP280;59918;51.280;7.950;2022-12-24T03:33:08;97323.84;;;8.98
72054;BMP280;59918;51.280;7.950;2022-12-24T03:35:34;97333.72;;;9.01
72054;BMP280;59918;51.280;7.950;2022-12-24T03:37:59;97328.97;;;9.05
72054;BMP280;59918;51.280;7.950;2022-12-24T03:40:24;97336.66;;;9.05
72054;BMP280;59918;51.280;7.950;2022-12-24T03:42:49;97335.84;;;9.04
72054;BMP280;59918;51.280;7.950;2022-12-24T03:45:15;97342.13;;;9.08
72054;BMP280;59918;51.280;7.950;2022-12-24T03:47:40;97344.31;;;9.11
72054;BMP280;59918;51.280;7.950;2022-12-24T03:50:06;97337.97;;;9.13
72054;BMP280;59918;51.280;7.950;2022-12-24T03:52:31;97339.13;;;9.17
72054;BMP280;59918;51.280;7.950;2022-12-24T03:54:56;97339.91;;;9.18
72054;BMP280;59918;51.280;7.950;2022-12-24T03:57:22;97343.06;;;9.20
72054;BMP280;59918;51.280;7.950;2022-12-24T03:59:47;97347.00;;;9.22
72054;BMP280;59918;51.280;7.950;2022-12-24T04:02:12;97342.47;;;9.24
72054;BMP280;59918;51.280;7.950;2022-12-24T04:04:37;97341.25;;;9.27
72054;BMP280;59918;51.280;7.950;2022-12-24T04:07:04;97346.97;;;9.29
72054;BMP280;59918;51.280;7.950;2022-12-24T04:09:29;97348.53;;;9.30
72054;BMP280;59918;51.280;7.950;2022-12-24T04:11:55;97345.00;;;9.31
72054;BMP280;59918;51.280;7.950;2022-12-24T04:14:20;97331.16;;;9.32
72054;BMP280;59918;51.280;7.950;2022-12-24T04:16:45;97338.66;;;9.33
72054;BMP280;59918;51.280;7.950;2022-12-24T04:19:10;97329.97;;;9.34
72054;BMP280;59918;51.280;7.950;2022-12-24T04:21:36;97333.50;;;9.33
72054;BMP280;59918;51.280;7.950;2022-12-24T04:24:03;97340.22;;;9.34
72054;BMP280;59918;51.280;7.950;2022-12-24T04:26:28;97336.84;;;9.34
72054;BMP280;59918;51.280;7.950;2022-12-24T04:28:54;97340.00;;;9.36
72054;BMP280;59918;51.280;7.950;2022-12-24T04:31:19;97341.59;;;9.37
72054;BMP280;59918;51.280;7.950;2022-12-24T04:33:45;97345.72;;;9.38
72054;BMP280;59918;51.280;7.950;2022-12-24T04:36:15;97350.84;;;9.38
72054;BMP280;59918;51.280;7.950;2022-12-24T04:38:40;97348.09;;;9.39
72054;BMP280;59918;51.280;7.950;2022-12-24T04:41:09;97352.44;;;9.39
72054;BMP280;59918;51.280;7.950;2022-12-24T04:43:34;97342.16;;;9.39
72054;BMP280;59918;51.280;7.950;2022-12-24T04:46:18;97349.09;;;9.38
72054;BMP280;59918;51.280;7.950;2022-12-24T04:48:47;97355.59;;;9.41
72054;BMP280;59918;51.280;7.950;2022-12-24T04:51:14;97362.31;;;9.35
72054;BMP280;59918;51.280;7.950;2022-12-24T04:53:40;97372.63;;;9.29
72054;BMP280;59918;51.280;7.950;2022-12-24T04:56:08;97370.88;;;9.23
72054;BMP280;59918;51.280;7.950;2022-12-24T04:58:35;97368.72;;;9.20
72054;BMP280;59918;51.280;7.950;2022-12-24T05:01:05;97362.81;;;9.19
72054;BMP280;59918;51.280;7.950;2022-12-24T05:03:30;97368.13;;;9.18
72054;BMP280;59918;51.280;7.950;2022-12-24T05:06:07;97358.09;;;9.16
72054;BMP280;59918;51.280;7.950;2022-12-24T05:08:34;97359.84;;;9.16
72054;BMP280;59918;51.280;7.950;2022-12-24T05:11:00;97369.13;;;9.17
72054;BMP280;59918;51.280;7.950;2022-12-24T05:13:26;97376.84;;;9.17
72054;BMP280;59918;51.280;7.950;2022-12-24T05:15:51;97374.28;;;9.17
72054;BMP280;59918;51.280;7.950;2022-12-24T05:18:17;97367.34;;;9.17
72054;BMP280;59918;51.280;7.950;2022-12-24T05:20:43;97377.81;;;9.16
72054;BMP280;59918;51.280;7.950;2022-12-24T05:23:14;97370.34;;;9.14
72054;BMP280;59918;51.280;7.950;2022-12-24T05:25:40;97378.63;;;9.10
72054;BMP280;59918;51.280;7.950;2022-12-24T05:28:05;97369.38;;;9.09
72054;BMP280;59918;51.280;7.950;2022-12-24T05:30:30;97376.66;;;9.12
72054;BMP280;59918;51.280;7.950;2022-12-24T05:32:56;97382.94;;;9.16
72054;BMP280;59918;51.280;7.950;2022-12-24T05:35:21;97377.41;;;9.19
72054;BMP280;59918;51.280;7.950;2022-12-24T05:37:46;97384.09;;;9.20
72054;BMP280;59918;51.280;7.950;2022-12-24T05:40:11;97383.13;;;9.21
72054;BMP280;59918;51.280;7.950;2022-12-24T05:42:37;97383.91;;;9.21
72054;BMP280;59918;51.280;7.950;2022-12-24T05:45:02;97390.63;;;9.22
72054;BMP280;59918;51.280;7.950;2022-12-24T05:47:27;97396.53;;;9.23
72054;BMP280;59918;51.280;7.950;2022-12-24T05:49:53;97412.72;;;9.23
72054;BMP280;59918;51.280;7.950;2022-12-24T05:52:18;97405.78;;;9.24
72054;BMP280;59918;51.280;7.950;2022-12-24T05:54:43;97407.38;;;9.25
72054;BMP280;59918;51.280;7.950;2022-12-24T05:57:08;97407.38;;;9.25
72054;BMP280;59918;51.280;7.950;2022-12-24T05:59:34;97412.50;;;9.25
72054;BMP280;59918;51.280;7.950;2022-12-24T06:01:59;97406.59;;;9.24
72054;BMP280;59918;51.280;7.950;2022-12-24T06:04:24;97414.50;;;9.23
72054;BMP280;59918;51.280;7.950;2022-12-24T06:06:49;97410.94;;;9.24
72054;BMP280;59918;51.280;7.950;2022-12-24T06:09:15;97417.66;;;9.25
72054;BMP280;59918;51.280;7.950;2022-12-24T06:11:40;97415.06;;;9.25
72054;BMP280;59918;51.280;7.950;2022-12-24T06:14:05;97413.09;;;9.27
72054;BMP280;59918;51.280;7.950;2022-12-24T06:16:30;97418.03;;;9.28
72054;BMP280;59918;51.280;7.950;2022-12-24T06:18:56;97408.53;;;9.29
72054;BMP280;59918;51.280;7.950;2022-12-24T06:21:21;97420.38;;;9.30
72054;BMP280;59918;51.280;7.950;2022-12-24T06:23:46;97419.59;;;9.29
72054;BMP280;59918;51.280;7.950;2022-12-24T06:26:15;97424.53;;;9.31
72054;BMP280;59918;51.280;7.950;2022-12-24T06:28:43;97419.97;;;9.33
72054;BMP280;59918;51.280;7.950;2022-12-24T06:31:12;97423.50;;;9.32
72054;BMP280;59918;51.280;7.950;2022-12-24T06:33:37;97426.91;;;9.32
72054;BMP280;59918;51.280;7.950;2022-12-24T06:36:05;97436.16;;;9.33
72054;BMP280;59918;51.280;7.950;2022-12-24T06:38:31;97446.41;;;9.33
72054;BMP280;59918;51.280;7.950;2022-12-24T06:40:56;97431.78;;;9.34
72054;BMP280;59918;51.280;7.950;2022-12-24T06:43:22;97443.66;;;9.35
72054;BMP280;59918;51.280;7.950;2022-12-24T06:45:47;97450.34;;;9.36
72054;BMP280;59918;51.280;7.950;2022-12-24T06:48:13;97447.56;;;9.37
72054;BMP280;59918;51.280;7.950;2022-12-24T06:50:39;97452.50;;;9.39
72054;BMP280;59918;51.280;7.950;2022-12-24T06:53:04;97448.16;;;9.39
72054;BMP280;59918;51.280;7.950;2022-12-24T06:55:29;97461.78;;;9.40
72054;BMP280;59918;51.280;7.950;2022-12-24T06:57:55;97463.38;;;9.41
72054;BMP280;59918;51.280;7.950;2022-12-24T07:00:21;97467.50;;;9.42
72054;BMP280;59918;51.280;7.950;2022-12-24T07:02:46;97466.50;;;9.43
72054;BMP280;59918;51.280;7.950;2022-12-24T07:05:12;97477.34;;;9.45
72054;BMP280;59918;51.280;7.950;2022-12-24T07:07:39;97479.72;;;9.46
72054;BMP280;59918;51.280;7.950;2022-12-24T07:10:06;97473.78;;;9.45
72054;BMP280;59918;51.280;7.950;2022-12-24T07:12:31;97479.72;;;9.46
72054;BMP280;59918;51.280;7.950;2022-12-24T07:14:57;97485.66;;;9.46
72054;BMP280;59918;51.280;7.950;2022-12-24T07:17:22;97478.91;;;9.45
72054;BMP280;59918;51.280;7.950;2022-12-24T07:19:47;97473.59;;;9.47
72054;BMP280;59918;51.280;7.950;2022-12-24T07:22:12;97479.53;;;9.47
72054;BMP280;59918;51.280;7.950;2022-12-24T07:24:38;97483.66;;;9.48
72054;BMP280;59918;51.280;7.950;2022-12-24T07:27:03;97489.38;;;9.50
72054;BMP280;59918;51.280;7.950;2022-12-24T07:29:28;97502.22;;;9.50
72054;BMP280;59918;51.280;7.950;2022-12-24T07:31:53;97505.38;;;9.52
72054;BMP280;59918;51.280;7.950;2022-12-24T07:34:19;97504.38;;;9.53
72054;BMP280;59918;51.280;7.950;2022-12-24T07:36:44;97506.72;;;9.55
72054;BMP280;59918;51.280;7.950;2022-12-24T07:39:09;97506.53;;;9.56
72054;BMP280;59918;51.280;7.950;2022-12-24T07:41:34;97502.16;;;9.57
72054;BMP280;59918;51.280;7.950;2022-12-24T07:44:00;97506.34;;;9.58
72054;BMP280;59918;51.280;7.950;2022-12-24T07:46:25;97513.25;;;9.57
72054;BMP280;59918;51.280;7.950;2022-12-24T07:48:50;97513.84;;;9.59
72054;BMP280;59918;51.280;7.950;2022-12-24T07:51:15;97513.84;;;9.59
72054;BMP280;59918;51.280;7.950;2022-12-24T07:53:40;97506.72;;;9.61
72054;BMP280;59918;51.280;7.950;2022-12-24T07:56:06;97504.16;;;9.61
72054;BMP280;59918;51.280;7.950;2022-12-24T07:58:31;97526.25;;;9.62
72054;BMP280;59918;51.280;7.950;2022-12-24T08:00:58;97522.72;;;9.63
72054;BMP280;59918;51.280;7.950;2022-12-24T08:03:24;97529.41;;;9.64
72054;BMP280;59918;51.280;7.950;2022-12-24T08:05:50;97527.41;;;9.66
72054;BMP280;59918;51.280;7.950;2022-12-24T08:08:15;97538.47;;;9.67
72054;BMP280;59918;51.280;7.950;2022-12-24T08:10:41;97528.19;;;9.67
72054;BMP280;59918;51.280;7.950;2022-12-24T08:13:07;97529.00;;;9.67
72054;BMP280;59918;51.280;7.950;2022-12-24T08:15:32;97533.13;;;9.68
72054;BMP280;59918;51.280;7.950;2022-12-24T08:17:58;97546.75;;;9.69
72054;BMP280;59918;51.280;7.950;2022-12-24T08:20:23;97547.34;;;9.71
72054;BMP280;59918;51.280;7.950;2022-12-24T08:22:48;97555.63;;;9.73
72054;BMP280;59918;51.280;7.950;2022-12-24T08:25:14;97565.13;;;9.72
72054;BMP280;59918;51.280;7.950;2022-12-24T08:27:39;97560.75;;;9.73
72054;BMP280;59918;51.280;7.950;2022-12-24T08:30:05;97562.16;;;9.75
72054;BMP280;59918;51.280;7.950;2022-12-24T08:32:31;97556.22;;;9.75
72054;BMP280;59918;51.280;7.950;2022-12-24T08:34:56;97568.66;;;9.78
72054;BMP280;59918;51.280;7.950;2022-12-24T08:37:21;97581.50;;;9.78
72054;BMP280;59918;51.280;7.950;2022-12-24T08:39:47;97582.84;;;9.80
72054;BMP280;59918;51.280;7.950;2022-12-24T08:42:12;97581.28;;;9.79
72054;BMP280;59918;51.280;7.950;2022-12-24T08:44:37;97585.03;;;9.77
72054;BMP280;59918;51.280;7.950;2022-12-24T08:47:02;97586.03;;;9.76
72054;BMP280;59918;51.280;7.950;2022-12-24T08:49:28;97591.16;;;9.82
72054;BMP280;59918;51.280;7.950;2022-12-24T08:51:53;97598.84;;;9.82
72054;BMP280;59918;51.280;7.950;2022-12-24T08:54:18;97594.72;;;9.81
72054;BMP280;59918;51.280;7.950;2022-12-24T08:56:43;97606.56;;;9.82
72054;BMP280;59918;51.280;7.950;2022-12-24T08:59:10;97609.69;;;9.84
72054;BMP280;59918;51.280;7.950;2022-12-24T09:01:35;97619.97;;;9.84
72054;BMP280;59918;51.280;7.950;2022-12-24T09:04:01;97619.00;;;9.85
72054;BMP280;59918;51.280;7.950;2022-12-24T09:06:26;97611.06;;;9.86
72054;BMP280;59918;51.280;7.950;2022-12-24T09:08:51;97614.03;;;9.90
72054;BMP280;59918;51.280;7.950;2022-12-24T09:11:17;97637.97;;;9.90
72054;BMP280;59918;51.280;7.950;2022-12-24T09:13:43;97632.81;;;9.90
72054;BMP280;59918;51.280;7.950;2022-12-24T09:16:09;97634.22;;;9.93
72054;BMP280;59918;51.280;7.950;2022-12-24T09:18:35;97643.69;;;9.92
72054;BMP280;59918;51.280;7.950;2022-12-24T09:21:05;97641.34;;;9.91
72054;BMP280;59918;51.280;7.950;2022-12-24T09:23:34;97642.91;;;9.92
72054;BMP280;59918;51.280;7.950;2022-12-24T09:25:59;97637.13;;;9.90
72054;BMP280;59918;51.280;7.950;2022-12-24T09:28:25;97644.25;;;9.94
72054;BMP280;59918;51.280;7.950;2022-12-24T09:30:58;97650.00;;;9.96
72054;BMP280;59918;51.280;7.950;2022-12-24T09:33:24;97649.78;;;9.98
72054;BMP280;59918;51.280;7.950;2022-12-24T09:35:51;97659.88;;;9.99
72054;BMP280;59918;51.280;7.950;2022-12-24T09:38:18;97665.97;;;9.98
72054;BMP280;59918;51.280;7.950;2022-12-24T09:40:43;97673.09;;;10.03
72054;BMP280;59918;51.280;7.950;2022-12-24T09:43:20;97667.53;;;10.06
72054;BMP280;59918;51.280;7.950;2022-12-24T09:46:00;97678.59;;;10.13
72054;BMP280;59918;51.280;7.950;2022-12-24T09:48:29;97677.59;;;10.14
72054;BMP280;59918;51.280;7.950;2022-12-24T09:53:50;97684.31;;;10.15
72054;BMP280;59918;51.280;7.950;2022-12-24T09:56:20;97689.84;;;10.18
72054;BMP280;59918;51.280;7.950;2022-12-24T09:58:50;97689.63;;;10.19
72054;BMP280;59918;51.280;7.950;2022-12-24T10:01:17;97689.22;;;10.22
72054;BMP280;59918;51.280;7.950;2022-12-24T10:03:43;97694.97;;;10.24
72054;BMP280;59918;51.280;7.950;2022-12-24T10:06:16;97689.81;;;10.24
72054;BMP280;59918;51.280;7.950;2022-12-24T10:11:24;97697.53;;;10.24
72054;BMP280;59918;51.280;7.950;2022-12-24T10:20:01;97692.38;;;10.24
72054;BMP280;59918;51.280;7.950;2022-12-24T10:27:44;97703.88;;;10.22
72054;BMP280;59918;51.280;7.950;2022-12-24T10:30:15;97710.38;;;10.24
72054;BMP280;59918;51.280;7.950;2022-12-24T10:32:41;97701.66;;;10.25
72054;BMP280;59918;51.280;7.950;2022-12-24T10:37:38;97704.41;;;10.30
72054;BMP280;59918;51.280;7.950;2022-12-24T10:40:04;97703.03;;;10.34
72054;BMP280;59918;51.280;7.950;2022-12-24T10:42:39;97714.44;;;10.45
72054;BMP280;59918;51.280;7.950;2022-12-24T10:45:06;97714.00;;;10.54
72054;BMP280;59918;51.280;7.950;2022-12-24T10:47:33;97710.22;;;10.56
72054;BMP280;59918;51.280;7.950;2022-12-24T10:50:29;97716.00;;;10.52
72054;BMP280;59918;51.280;7.950;2022-12-24T10:53:03;97713.81;;;10.49
72054;BMP280;59918;51.280;7.950;2022-12-24T10:55:29;97713.47;;;10.46
72054;BMP280;59918;51.280;7.950;2022-12-24T10:58:05;97703.97;;;10.46
72054;BMP280;59918;51.280;7.950;2022-12-24T11:00:31;97727.69;;;10.48
72054;BMP280;59918;51.280;7.950;2022-12-24T11:05:38;97698.22;;;10.44
72054;BMP280;59918;51.280;7.950;2022-12-24T11:08:08;97709.69;;;10.48
72054;BMP280;59918;51.280;7.950;2022-12-24T11:10:54;97705.13;;;10.50
72054;BMP280;59918;51.280;7.950;2022-12-24T11:18:46;97700.84;;;10.38
72054;BMP280;59918;51.280;7.950;2022-12-24T11:21:22;97695.47;;;10.39
72054;BMP280;59918;51.280;7.950;2022-12-24T11:23:52;97700.22;;;10.42
72054;BMP280;59918;51.280;7.950;2022-12-24T11:26:28;97703.16;;;10.46
72054;BMP280;59918;51.280;7.950;2022-12-24T11:31:27;97704.97;;;10.39
72054;BMP280;59918;51.280;7.950;2022-12-24T11:33:53;97704.00;;;10.33
72054;BMP280;59918;51.280;7.950;2022-12-24T11:36:22;97701.88;;;10.24
72054;BMP280;59918;51.280;7.950;2022-12-24T11:38:55;97698.34;;;10.19
72054;BMP280;59918;51.280;7.950;2022-12-24T11:41:21;97689.47;;;10.15
72054;BMP280;59918;51.280;7.950;2022-12-24T11:43:49;97695.34;;;10.21
72054;BMP280;59918;51.280;7.950;2022-12-24T11:46:33;97689.47;;;10.15
72054;BMP280;59918;51.280;7.950;2022-12-24T11:51:38;97695.81;;;10.12
72054;BMP280;59918;51.280;7.950;2022-12-24T11:54:17;97697.16;;;10.15
72054;BMP280;59918;51.280;7.950;2022-12-24T11:56:47;97695.34;;;10.21
72054;BMP280;59918;51.280;7.950;2022-12-24T12:01:50;97704.47;;;10.24
72054;BMP280;59918;51.280;7.950;2022-12-24T12:04:24;97704.66;;;10.22
72054;BMP280;59918;51.280;7.950;2022-12-24T12:06:55;97704.81;;;10.27
72054;BMP280;59918;51.280;7.950;2022-12-24T12:09:32;97709.91;;;10.40
72054;BMP280;59918;51.280;7.950;2022-12-24T12:12:06;97720.94;;;10.47
72054;BMP280;59918;51.280;7.950;2022-12-24T12:14:37;97712.22;;;10.55
72054;BMP280;59918;51.280;7.950;2022-12-24T12:17:43;97708.28;;;10.52
72054;BMP280;59918;51.280;7.950;2022-12-24T12:25:29;97718.13;;;10.55
72054;BMP280;59918;51.280;7.950;2022-12-24T12:27:57;97710.75;;;10.65
72054;BMP280;59918;51.280;7.950;2022-12-24T12:30:24;97714.94;;;10.66
72054;BMP280;59918;51.280;7.950;2022-12-24T12:35:37;97718.09;;;10.68
72054;BMP280;59918;51.280;7.950;2022-12-24T12:38:07;97716.28;;;10.68
72054;BMP280;59918;51.280;7.950;2022-12-24T12:43:28;97718.91;;;10.62
72054;BMP280;59918;51.280;7.950;2022-12-24T12:48:48;97726.03;;;11.21
72054;BMP280;59918;51.280;7.950;2022-12-24T12:51:27;97721.19;;;11.62
72054;BMP280;59918;51.280;7.950;2022-12-24T12:56:59;97725.53;;;12.85
72054;BMP280;59918;51.280;7.950;2022-12-24T13:02:13;97738.31;;;12.16
72054;BMP280;59918;51.280;7.950;2022-12-24T13:10:30;97747.53;;;11.09
72054;BMP280;59918;51.280;7.950;2022-12-24T13:21:19;97767.75;;;11.29
72054;BMP280;59918;51.280;7.950;2022-12-24T13:23:48;97768.25;;;11.14
72054;BMP280;59918;51.280;7.950;2022-12-24T13:26:14;97766.38;;;11.03
72054;BMP280;59918;51.280;7.950;2022-12-24T13:28:40;97768.09;;;11.09
72054;BMP280;59918;51.280;7.950;2022-12-24T13:36:13;97779.72;;;11.18
72054;BMP280;59918;51.280;7.950;2022-12-24T13:38:42;97763.41;;;11.30
72054;BMP280;59918;51.280;7.950;2022-12-24T13:52:07;97770.00;;;11.20
72054;BMP280;59918;51.280;7.950;2022-12-24T13:54:33;97770.06;;;11.13
72054;BMP280;59918;51.280;7.950;2022-12-24T13:56:59;97774.03;;;11.09
72054;BMP280;59918;51.280;7.950;2022-12-24T13:59:35;97779.22;;;11.03
72054;BMP280;59918;51.280;7.950;2022-12-24T14:02:18;97779.28;;;10.96
72054;BMP280;59918;51.280;7.950;2022-12-24T14:04:49;97787.00;;;10.96
72054;BMP280;59918;51.280;7.950;2022-12-24T14:07:18;97782.44;;;10.92
72054;BMP280;59918;51.280;7.950;2022-12-24T14:09:48;97781.66;;;10.92
72054;BMP280;59918;51.280;7.950;2022-12-24T14:12:30;97779.69;;;10.93
72054;BMP280;59918;51.280;7.950;2022-12-24T14:14:56;97784.81;;;10.93
72054;BMP280;59918;51.280;7.950;2022-12-24T14:17:24;97801.06;;;10.88
72054;BMP280;59918;51.280;7.950;2022-12-24T14:19:53;97789.22;;;10.87
72054;BMP280;59918;51.280;7.950;2022-12-24T14:25:11;97799.38;;;11.06
72054;BMP280;59918;51.280;7.950;2022-12-24T14:32:35;97808.06;;;11.11
72054;BMP280;59918;51.280;7.950;2022-12-24T14:35:06;97813.31;;;10.98
72054;BMP280;59918;51.280;7.950;2022-12-24T14:37:32;97812.16;;;10.88
72054;BMP280;59918;51.280;7.950;2022-12-24T14:39:58;97827.47;;;10.77
72054;BMP280;59918;51.280;7.950;2022-12-24T14:42:48;97825.31;;;10.61
72054;BMP280;59918;51.280;7.950;2022-12-24T14:53:31;97843.66;;;9.95
72054;BMP280;59918;51.280;7.950;2022-12-24T14:55:58;97845.00;;;9.85
72054;BMP280;59918;51.280;7.950;2022-12-24T14:58:27;97838.88;;;9.73
72054;BMP280;59918;51.280;7.950;2022-12-24T15:00:59;97845.38;;;9.63
72054;BMP280;59918;51.280;7.950;2022-12-24T15:03:28;97855.84;;;9.55
72054;BMP280;59918;51.280;7.950;2022-12-24T15:06:01;97858.59;;;9.47
72054;BMP280;59918;51.280;7.950;2022-12-24T15:08:35;97872.78;;;9.37
72054;BMP280;59918;51.280;7.950;2022-12-24T15:11:04;97874.16;;;9.26
72054;BMP280;59918;51.280;7.950;2022-12-24T15:13:39;97871.72;;;9.12
72054;BMP280;59918;51.280;7.950;2022-12-24T15:16:10;97874.47;;;9.04
72054;BMP280;59918;51.280;7.950;2022-12-24T15:18:43;97876.59;;;8.94
72054;BMP280;59918;51.280;7.950;2022-12-24T15:21:30;97878.91;;;8.83
72054;BMP280;59918;51.280;7.950;2022-12-24T15:23:56;97894.69;;;8.73
72054;BMP280;59918;51.280;7.950;2022-12-24T15:26:32;97893.84;;;8.67
72054;BMP280;59918;51.280;7.950;2022-12-24T15:28:58;97891.81;;;8.56
72054;BMP280;59918;51.280;7.950;2022-12-24T15:31:25;97890.75;;;8.44
72054;BMP280;59918;51.280;7.950;2022-12-24T15:33:53;97901.53;;;8.33
72054;BMP280;59918;51.280;7.950;2022-12-24T15:36:30;97906.19;;;8.23
72054;BMP280;59918;51.280;7.950;2022-12-24T15:38:58;97902.53;;;8.11
72054;BMP280;59918;51.280;7.950;2022-12-24T15:41:27;97904.66;;;8.08
72054;BMP280;59918;51.280;7.950;2022-12-24T15:43:59;97906.00;;;8.04
72054;BMP280;59918;51.280;7.950;2022-12-24T15:46:26;97916.38;;;7.96
72054;BMP280;59918;51.280;7.950;2022-12-24T15:48:56;97917.53;;;7.94
72054;BMP280;59918;51.280;7.950;2022-12-24T15:51:28;97917.91;;;7.91
72054;BMP280;59918;51.280;7.950;2022-12-24T15:54:01;97928.50;;;7.67
72054;BMP280;59918;51.280;7.950;2022-12-24T15:56:43;97926.78;;;7.67
72054;BMP280;59918;51.280;7.950;2022-12-24T16:01:41;97930.03;;;7.82
72054;BMP280;59918;51.280;7.950;2022-12-24T16:04:16;97924.38;;;7.87
72054;BMP280;59918;51.280;7.950;2022-12-24T16:06:59;97919.25;;;7.87
72054;BMP280;59918;51.280;7.950;2022-12-24T16:11:59;97928.88;;;7.85
72054;BMP280;59918;51.280;7.950;2022-12-24T16:14:25;97921.56;;;7.82
72054;BMP280;59918;51.280;7.950;2022-12-24T16:16:50;97929.88;;;7.84
72054;BMP280;59918;51.280;7.950;2022-12-24T16:19:25;97926.31;;;7.85
72054;BMP280;59918;51.280;7.950;2022-12-24T16:21:56;97932.03;;;7.87
72054;BMP280;59918;51.280;7.950;2022-12-24T16:24:29;97932.31;;;7.92
72054;BMP280;59918;51.280;7.950;2022-12-24T16:26:56;97924.78;;;7.90
72054;BMP280;59918;51.280;7.950;2022-12-24T16:29:22;97922.63;;;7.87
72054;BMP280;59918;51.280;7.950;2022-12-24T16:31:55;97927.13;;;7.85